CST,Max TemperatureF,Mean TemperatureF,Min TemperatureF,Max Dew PointF,MeanDew PointF,Min DewpointF,Max Humidity, Mean Humidity, Min Humidity, Max Sea Level PressureIn, Mean Sea Level PressureIn, Min Sea Level PressureIn, Max VisibilityMiles, Mean VisibilityMiles, Min VisibilityMiles, Max Wind SpeedMPH, Mean Wind SpeedMPH, Max Gust SpeedMPH,PrecipitationIn, CloudCover, Events, WindDirDegrees
2013-11-1,37,35,33,37,34,30,100,91,75,29.81,29.57,29.37,10,8,4,8,4,,0.00,8,,301
2013-11-2,42,33,24,32,29,23,100,85,53,30.05,29.97,29.82,10,10,3,5,0,,0.00,5,Rain-Snow,185
2013-11-3,46,35,24,32,29,23,100,74,53,30.09,30.00,29.91,10,10,10,20,5,25,0.00,2,,128
2013-11-4,44,38,30,39,34,28,93,78,61,30.00,29.84,29.74,10,10,5,18,12,28,0.07,7,Rain,179
2013-11-5,33,28,24,28,24,21,93,79,60,30.14,30.09,30.01,10,10,10,10,5,,0.00,0,,231
2013-11-6,28,26,23,25,21,19,93,78,69,30.08,30.03,29.98,10,10,10,14,4,17,0.00,6,,281
2013-11-7,33,26,19,25,21,18,93,75,52,30.13,30.11,30.08,10,10,10,12,5,,0.00,7,,270
2013-11-8,37,24,12,32,23,10,100,88,60,30.12,29.91,29.59,10,7,0,9,2,9,0.05,3,Snow,116
2013-11-9,33,32,32,32,31,30,100,95,87,30.08,29.76,29.57,10,5,1,17,6,24,0.00,8,Snow,281
2013-11-10,35,25,15,30,25,10,100,83,63,30.19,30.12,30.03,10,9,2,15,9,22,0.00,6,Snow,269
2013-11-11,19,12,5,10,6,1,85,71,49,30.62,30.42,30.17,10,10,4,13,8,20,0.00,5,Snow,298
2013-11-12,28,16,5,12,7,1,92,65,42,30.65,30.49,30.22,10,10,10,13,6,16,0.00,1,Snow,236
2013-11-13,44,32,19,32,23,9,86,70,57,30.21,29.86,29.71,10,10,10,15,7,24,0.00,0,,217
2013-11-14,35,30,26,32,28,27,100,85,70,29.79,29.74,29.69,10,10,3,6,0,,0.00,6,Snow,316
2013-11-15,44,38,32,36,33,28,100,83,57,29.75,29.67,29.56,10,9,0,10,3,18,0.00,5,Fog,191
2013-11-16,42,40,39,41,37,34,100,88,76,29.56,29.40,29.27,10,7,2,13,7,24,0.00,6,Rain,159
2013-11-17,39,32,26,39,33,21,100,94,80,29.64,29.36,29.23,10,5,0,20,5,26,0.01,8,Fog-Rain-Snow,288
2013-11-18,26,24,21,21,18,18,86,81,74,30.19,29.99,29.65,10,10,10,17,11,25,0.00,8,Snow,298
2013-11-19,37,28,19,25,19,16,93,71,48,30.21,30.01,29.76,10,10,7,21,6,30,0.00,3,,140
2013-11-20,46,39,30,27,26,25,86,60,46,30.00,29.86,29.75,10,10,10,18,10,31,0.00,0,,175
2013-11-21,33,24,15,30,18,10,100,81,68,30.48,30.27,30.00,10,9,2,13,6,21,0.00,8,Snow,305
2013-11-22,15,10,5,10,6,0,92,80,62,30.57,30.43,30.35,10,8,2,14,6,22,0.00,5,Snow,277
2013-11-23,10,2,-7,1,-4,-11,92,71,52,30.73,30.66,30.58,10,10,5,14,6,22,0.00,4,Snow,304
2013-11-24,35,13,-7,21,6,-11,85,67,53,30.58,30.09,29.64,10,9,3,16,6,29,0.00,5,,182
2013-11-25,35,26,17,28,22,9,93,75,60,29.95,29.79,29.63,10,9,2,17,13,28,0.00,8,Snow,276
2013-11-26,17,12,6,10,4,0,85,73,57,30.34,30.16,29.93,10,9,1,18,10,26,0.00,6,Snow,313
2013-11-27,15,5,-5,14,7,-8,93,84,68,30.34,30.19,30.06,10,7,1,7,2,,0.00,5,Snow,120
2013-11-28,19,11,3,14,11,1,100,87,74,30.45,30.25,30.06,10,8,2,8,1,,0.01,7,Snow,298
2013-11-29,24,10,-5,18,7,-9,92,81,73,30.45,30.30,30.05,10,10,10,13,3,17,0.00,3,,148
2013-11-30,28,24,21,21,20,18,93,81,74,30.15,30.05,29.97,10,10,10,8,4,,0.00,8,,258